Time;durP1;ratioP1;P1;durP2;ratioP2;P2;SDS_P1;SDS_P2;PMS_P1;PMS_P2;Temp;Humidity;BMP_temperature;BMP_pressure;BME280_temperature;BME280_humidity;BME280_pressure;Samples;Min_cycle;Max_cycle;Signal;HPM_P1;HPM_P2
2022/12/25 00:01:51;;;;;;;13.03;6.70;;;;;;;7.44;92.76;95183.88;4987930;28;20207;-78
2022/12/25 00:04:16;;;;;;;12.57;6.50;;;;;;;7.43;92.76;95175.22;4978643;28;20882;-77
2022/12/25 00:06:41;;;;;;;13.37;7.27;;;;;;;7.52;92.59;95189.81;4998669;28;20165;-78
2022/12/25 00:09:07;;;;;;;12.90;7.77;;;;;;;7.52;92.80;95186.41;4995642;28;20493;-77
2022/12/25 00:11:32;;;;;;;16.00;9.43;;;;;;;7.53;93.42;95191.44;4980177;28;20428;-77
2022/12/25 00:13:58;;;;;;;16.17;8.60;;;;;;;7.62;93.20;95192.16;4992716;28;20494;-78
2022/12/25 00:16:25;;;;;;;13.03;7.00;;;;;;;7.78;92.58;95197.19;4990571;28;20180;-77
2022/12/25 00:18:51;;;;;;;13.32;7.22;;;;;;;7.81;91.72;95180.28;4976414;28;20436;-78
2022/12/25 00:21:19;;;;;;;10.93;7.05;;;;;;;7.91;91.81;95199.94;4984936;28;20431;-77
2022/12/25 00:23:45;;;;;;;12.57;6.93;;;;;;;7.91;91.74;95197.31;4984323;28;20653;-78
2022/12/25 00:26:14;;;;;;;11.15;6.50;;;;;;;7.86;92.51;95194.47;4991811;28;20420;-78
2022/12/25 00:28:40;;;;;;;11.05;6.50;;;;;;;7.89;92.45;95198.50;4991347;28;20843;-78
2022/12/25 00:31:11;;;;;;;10.40;7.32;;;;;;;7.93;91.94;95197.97;4999214;28;20412;-78
2022/12/25 00:33:39;;;;;;;12.52;8.13;;;;;;;7.98;92.11;95197.38;5003622;28;20502;-77
2022/12/25 00:36:05;;;;;;;9.45;5.75;;;;;;;8.05;91.30;95192.19;5011303;28;20426;-77
2022/12/25 00:38:32;;;;;;;9.02;5.40;;;;;;;8.13;91.84;95202.59;5006227;28;20767;-78
2022/12/25 00:40:57;;;;;;;9.85;5.30;;;;;;;8.22;90.86;95207.50;5014273;28;20414;-78
2022/12/25 00:43:23;;;;;;;7.37;4.90;;;;;;;8.21;91.22;95213.78;5011292;28;20193;-78
2022/12/25 00:45:56;;;;;;;8.85;4.72;;;;;;;8.22;90.78;95220.63;4996283;28;20435;-78
2022/12/25 00:48:22;;;;;;;9.07;6.03;;;;;;;8.15;91.26;95217.13;5012762;28;20560;-77
2022/12/25 00:50:47;;;;;;;8.57;5.50;;;;;;;8.09;91.66;95219.69;5007173;28;20962;-78
2022/12/25 00:53:12;;;;;;;10.63;5.60;;;;;;;7.95;91.78;95216.13;4993533;28;20432;-77
2022/12/25 00:55:38;;;;;;;9.32;5.57;;;;;;;7.61;91.63;95172.19;4995165;28;20431;-80
2022/12/25 00:58:03;;;;;;;9.27;5.27;;;;;;;7.93;91.71;95225.97;5003913;28;20414;-80
2022/12/25 01:00:28;;;;;;;9.23;5.83;;;;;;;7.94;91.99;95220.56;4997844;28;20425;-80
2022/12/25 01:02:54;;;;;;;6.43;4.73;;;;;;;7.93;91.48;95218.13;5009135;28;20683;-80
2022/12/25 01:05:19;;;;;;;10.90;5.63;;;;;;;7.85;91.22;95211.19;5010355;28;20418;-80
2022/12/25 01:07:45;;;;;;;9.70;4.60;;;;;;;7.58;90.89;95159.47;4996414;28;20178;-80
2022/12/25 01:10:22;;;;;;;9.00;4.77;;;;;;;7.92;90.39;95214.69;5014183;28;20176;-80
2022/12/25 01:12:49;;;;;;;8.40;4.73;;;;;;;7.90;90.21;95218.47;4998423;28;20541;-80
2022/12/25 01:15:15;;;;;;;8.87;6.03;;;;;;;7.76;89.70;95219.34;4996073;28;20184;-80
2022/12/25 01:17:42;;;;;;;10.32;5.18;;;;;;;7.68;90.10;95198.47;5003742;28;20415;-80
2022/12/25 01:20:08;;;;;;;9.30;5.13;;;;;;;7.85;89.98;95226.09;5004482;28;20420;-80
2022/12/25 01:22:34;;;;;;;7.35;4.30;;;;;;;7.75;89.73;95208.03;5001695;28;20430;-80
2022/12/25 01:24:59;;;;;;;8.10;3.87;;;;;;;7.76;89.72;95209.66;5005363;28;20172;-80
2022/12/25 01:27:25;;;;;;;9.60;4.10;;;;;;;7.47;89.65;95176.47;4995674;28;20252;-81
2022/12/25 01:29:50;;;;;;;6.40;3.77;;;;;;;7.74;89.71;95216.06;4995286;28;20411;-81
2022/12/25 01:32:15;;;;;;;8.47;4.47;;;;;;;7.78;89.08;95231.25;5012317;28;20576;-81
2022/12/25 01:34:41;;;;;;;10.07;4.30;;;;;;;7.70;89.52;95222.66;5005442;28;20183;-81
2022/12/25 01:37:06;;;;;;;8.77;5.00;;;;;;;7.73;89.54;95227.56;5007604;28;20180;-81
2022/12/25 01:39:32;;;;;;;8.80;4.67;;;;;;;7.66;89.42;95222.25;5006431;28;20252;-80
2022/12/25 01:41:58;;;;;;;9.03;4.43;;;;;;;7.33;89.95;95184.34;5006766;28;20585;-81
2022/12/25 01:44:35;;;;;;;9.00;4.80;;;;;;;7.64;89.81;95233.88;5015651;28;20218;-80
2022/12/25 01:47:05;;;;;;;7.87;4.37;;;;;;;7.60;89.50;95216.94;5006242;28;20202;-80
2022/12/25 01:49:36;;;;;;;7.47;4.03;;;;;;;7.58;89.50;95222.34;5006084;28;20180;-80
2022/12/25 01:52:09;;;;;;;7.50;4.30;;;;;;;7.63;89.29;95206.06;5005909;28;20477;-80
2022/12/25 01:54:42;;;;;;;6.95;4.10;;;;;;;7.61;90.13;95224.59;5005063;28;20358;-81
2022/12/25 01:57:14;;;;;;;7.25;4.60;;;;;;;7.54;90.31;95213.22;4996088;28;20783;-80
2022/12/25 01:59:40;;;;;;;9.98;4.60;;;;;;;7.52;90.58;95213.41;4995404;28;20503;-80
2022/12/25 02:02:06;;;;;;;5.57;3.57;;;;;;;7.63;90.20;95222.59;5007631;28;20288;-81
2022/12/25 02:04:40;;;;;;;5.97;3.70;;;;;;;7.68;89.92;95220.25;5005997;28;20222;-81
2022/12/25 02:07:10;;;;;;;7.18;4.15;;;;;;;7.52;90.04;95205.53;5004666;28;21241;-81
2022/12/25 02:09:36;;;;;;;5.50;3.03;;;;;;;7.65;89.66;95223.22;5009723;28;20165;-81
2022/12/25 02:12:03;;;;;;;6.18;4.07;;;;;;;7.43;90.27;95200.59;5011879;28;20418;-81
2022/12/25 02:14:31;;;;;;;6.53;3.90;;;;;;;7.53;89.67;95208.97;5013403;28;20827;-80
2022/12/25 02:17:09;;;;;;;5.87;3.83;;;;;;;7.46;90.14;95215.94;4994776;28;20427;-81
2022/12/25 02:20:11;;;;;;;5.23;3.43;;;;;;;7.57;89.98;95224.16;5003696;28;20165;-81
2022/12/25 02:23:03;;;;;;;5.75;3.90;;;;;;;7.45;90.63;95230.84;4985774;28;20447;-81
2022/12/25 02:25:37;;;;;;;5.82;3.63;;;;;;;7.43;90.96;95232.03;5011383;28;20415;-81
2022/12/25 02:28:20;;;;;;;9.63;4.13;;;;;;;7.45;90.21;95230.84;5004822;28;20514;-81
2022/12/25 02:30:53;;;;;;;5.43;3.70;;;;;;;7.27;90.14;95195.53;5005891;28;20204;-81
2022/12/25 02:36:19;;;;;;;6.60;4.20;;;;;;;7.48;90.16;95225.25;5010866;28;20436;-81
2022/12/25 02:41:38;;;;;;;6.25;3.95;;;;;;;7.54;89.77;95213.22;5014044;28;20426;-81
2022/12/25 03:06:42;;;;;;;12.20;5.75;;;;;;;7.25;90.75;95228.97;5003919;28;20438;-79
2022/12/25 03:12:04;;;;;;;13.48;6.20;;;;;;;7.34;89.73;95243.59;4993326;28;20974;-79
2022/12/25 03:17:15;;;;;;;12.35;6.22;;;;;;;7.11;89.79;95236.63;5003512;28;20448;-79
2022/12/25 03:28:01;;;;;;;15.70;7.43;;;;;;;6.94;89.27;95247.44;4998294;28;20567;-79
2022/12/25 03:35:21;;;;;;;12.23;6.37;;;;;;;6.71;89.76;95224.78;4993987;28;20200;-79
2022/12/25 03:36:40;;;;;;;14.17;5.40;;;;;;;6.96;89.41;95259.38;5003379;28;20226;-79
2022/12/25 04:37:51;;;;;;;15.37;7.53;;;;;;;6.48;89.14;95338.25;5002754;28;20313;-76
2022/12/25 04:40:17;;;;;;;22.83;10.50;;;;;;;6.29;89.05;95303.72;4999341;28;20483;-76
2022/12/25 04:42:42;;;;;;;32.57;13.20;;;;;;;6.18;90.17;95311.13;4990294;28;20428;-79
2022/12/25 04:45:08;;;;;;;24.20;10.70;;;;;;;6.27;90.59;95339.66;5008961;28;20176;-76
2022/12/25 04:47:34;;;;;;;22.52;10.52;;;;;;;6.24;90.82;95345.22;5008492;28;20580;-78
2022/12/25 04:49:59;;;;;;;19.10;8.80;;;;;;;6.29;90.80;95348.16;5004142;28;20497;-79
2022/12/25 04:52:24;;;;;;;16.40;8.53;;;;;;;6.43;91.06;95344.78;5009982;28;20417;-79
2022/12/25 04:54:50;;;;;;;13.37;7.40;;;;;;;6.41;91.87;95346.75;5001986;28;20535;-76
2022/12/25 04:57:15;;;;;;;19.23;10.77;;;;;;;6.51;91.82;95346.53;5002222;28;20412;-77
2022/12/25 04:59:41;;;;;;;21.17;14.38;;;;;;;6.53;91.35;95352.41;4998949;28;20400;-78
2022/12/25 05:02:06;;;;;;;21.90;16.70;;;;;;;6.56;92.09;95356.50;5004697;28;20438;-78
2022/12/25 05:04:32;;;;;;;16.10;10.80;;;;;;;6.66;91.68;95347.41;5009851;28;20525;-78
2022/12/25 05:06:57;;;;;;;7.30;5.13;;;;;;;6.86;91.43;95349.56;4991273;28;20575;-78
2022/12/25 05:09:24;;;;;;;9.13;5.83;;;;;;;6.94;90.64;95347.69;5004012;28;20429;-76
2022/12/25 05:11:49;;;;;;;9.57;5.97;;;;;;;6.82;90.97;95346.50;5010816;28;20410;-75
2022/12/25 05:14:15;;;;;;;13.57;8.75;;;;;;;6.74;91.19;95350.00;5009361;28;20417;-75
2022/12/25 05:16:40;;;;;;;12.70;6.70;;;;;;;6.75;91.14;95348.16;5000384;28;20695;-77
2022/12/25 05:19:06;;;;;;;13.47;8.03;;;;;;;6.67;90.90;95324.69;5004621;28;20187;-76
2022/12/25 05:21:31;;;;;;;10.82;7.47;;;;;;;6.86;90.59;95350.38;4994539;28;20420;-76
2022/12/25 05:23:56;;;;;;;11.77;6.60;;;;;;;6.84;89.66;95357.59;5011277;28;20204;-76
2022/12/25 05:26:24;;;;;;;13.90;7.77;;;;;;;6.74;89.92;95352.63;5015187;28;20212;-76
2022/12/25 05:28:50;;;;;;;21.37;8.90;;;;;;;6.68;89.21;95361.13;5006209;28;20560;-76
2022/12/25 05:31:16;;;;;;;18.37;9.20;;;;;;;6.64;89.04;95359.06;5015029;28;20187;-77
2022/12/25 05:33:42;;;;;;;17.87;9.53;;;;;;;6.61;88.73;95367.25;5005930;28;20181;-77
2022/12/25 05:36:10;;;;;;;26.07;16.10;;;;;;;6.44;88.89;95359.50;5002612;28;20423;-77
2022/12/25 05:38:36;;;;;;;29.05;17.80;;;;;;;6.29;90.27;95365.66;4993019;28;20440;-77
2022/12/25 05:41:02;;;;;;;21.93;13.83;;;;;;;6.35;89.92;95363.16;5003817;28;20248;-77
2022/12/25 05:43:28;;;;;;;31.93;20.33;;;;;;;6.38;89.31;95372.47;5004070;28;20255;-77
2022/12/25 05:45:54;;;;;;;33.77;19.83;;;;;;;6.23;89.09;95338.38;5004790;28;20927;-77
2022/12/25 05:48:19;;;;;;;32.20;18.87;;;;;;;6.26;88.92;95348.50;5005411;28;20186;-78
2022/12/25 05:50:45;;;;;;;33.63;19.77;;;;;;;6.32;89.18;95381.78;5001766;28;20567;-77
2022/12/25 05:53:12;;;;;;;33.80;19.87;;;;;;;6.33;89.17;95372.13;5005093;28;20187;-77
2022/12/25 05:55:42;;;;;;;29.70;16.17;;;;;;;6.22;89.46;95383.00;5005457;28;20510;-77
2022/12/25 05:58:09;;;;;;;28.20;14.17;;;;;;;6.19;88.99;95368.47;5006138;28;20195;-77
2022/12/25 06:00:35;;;;;;;25.17;14.13;;;;;;;6.27;88.82;95380.69;5002843;28;20191;-77
2022/12/25 06:03:00;;;;;;;21.33;12.20;;;;;;;6.32;88.98;95389.63;5004454;28;20291;-77
2022/12/25 06:05:26;;;;;;;18.13;11.53;;;;;;;6.34;88.49;95386.84;5007344;28;20412;-77
2022/12/25 06:07:51;;;;;;;21.37;11.43;;;;;;;6.38;88.08;95396.81;5006049;28;20678;-78
2022/12/25 06:10:17;;;;;;;17.73;10.40;;;;;;;6.43;88.15;95393.66;5006083;28;20188;-77
2022/12/25 06:12:42;;;;;;;17.97;10.50;;;;;;;6.44;87.64;95393.50;5014313;28;20180;-78
2022/12/25 06:15:08;;;;;;;17.17;9.03;;;;;;;6.48;87.99;95393.16;5014148;28;20176;-77
2022/12/25 06:17:33;;;;;;;18.00;8.47;;;;;;;6.44;87.68;95390.88;5004975;28;20667;-77
2022/12/25 06:19:59;;;;;;;19.27;9.10;;;;;;;6.55;87.51;95394.91;4994309;28;20312;-77
2022/12/25 06:22:31;;;;;;;16.67;9.40;;;;;;;6.65;87.31;95405.16;4994272;28;20687;-76
2022/12/25 06:24:57;;;;;;;23.80;9.77;;;;;;;6.64;87.40;95409.56;4998157;28;20227;-76
2022/12/25 06:27:23;;;;;;;21.33;10.43;;;;;;;6.77;86.95;95414.22;5005025;28;20207;-76
2022/12/25 06:29:48;;;;;;;19.83;10.67;;;;;;;6.82;86.76;95407.50;5000240;28;20256;-76
2022/12/25 06:32:14;;;;;;;20.87;10.60;;;;;;;6.83;86.56;95416.94;4993892;28;20177;-76
2022/12/25 06:34:39;;;;;;;18.73;10.63;;;;;;;6.92;86.71;95422.94;4993675;28;20186;-76
2022/12/25 06:37:04;;;;;;;18.33;10.50;;;;;;;6.95;86.53;95412.13;4993657;28;20189;-76
2022/12/25 06:39:30;;;;;;;19.23;10.80;;;;;;;7.13;85.89;95423.13;5004222;28;20184;-76
2022/12/25 06:41:56;;;;;;;24.27;11.97;;;;;;;7.18;85.62;95426.03;5002986;28;20271;-76
2022/12/25 06:44:21;;;;;;;17.37;10.73;;;;;;;7.31;85.57;95432.47;5013112;28;20195;-76
2022/12/25 06:46:46;;;;;;;17.90;10.10;;;;;;;7.60;85.94;95427.31;5013100;28;20185;-76
2022/12/25 06:49:12;;;;;;;23.10;11.00;;;;;;;8.46;84.48;95441.66;5003966;28;20185;-76
2022/12/25 06:51:37;;;;;;;17.93;9.97;;;;;;;9.19;80.76;95451.94;4992808;28;20281;-76
2022/12/25 06:54:03;;;;;;;20.93;9.80;;;;;;;9.96;77.82;95454.63;4980490;28;20182;-77
2022/12/25 06:56:29;;;;;;;14.70;8.13;;;;;;;10.86;72.97;95459.78;4983365;28;20176;-77
2022/12/25 06:58:57;;;;;;;14.97;8.23;;;;;;;11.86;69.75;95461.59;4981457;28;20178;-77
2022/12/25 07:01:29;;;;;;;18.80;8.47;;;;;;;13.36;65.56;95461.34;4975536;28;20189;-77
2022/12/25 07:04:01;;;;;;;14.30;8.00;;;;;;;14.63;61.67;95468.84;4988047;28;20212;-78
2022/12/25 07:06:27;;;;;;;14.33;7.67;;;;;;;15.07;58.74;95478.34;4993227;28;20598;-79
2022/12/25 07:08:52;;;;;;;15.33;7.97;;;;;;;15.10;58.01;95477.91;4993300;28;20212;-77
2022/12/25 07:11:19;;;;;;;16.07;7.50;;;;;;;15.50;57.71;95474.69;4990906;28;20209;-77
2022/12/25 07:13:44;;;;;;;15.03;7.73;;;;;;;15.80;55.82;95472.06;4993608;28;20259;-78
2022/12/25 07:16:11;;;;;;;18.27;9.23;;;;;;;15.85;55.99;95477.47;5002483;28;20263;-79
2022/12/25 07:18:36;;;;;;;16.67;8.90;;;;;;;16.05;55.33;95485.16;5002727;28;20192;-78
2022/12/25 07:21:10;;;;;;;13.00;7.23;;;;;;;16.30;55.04;95484.94;4992549;28;20189;-77
2022/12/25 07:23:36;;;;;;;9.03;5.77;;;;;;;16.74;54.14;95496.84;4992396;28;20212;-78
2022/12/25 07:26:01;;;;;;;12.40;6.00;;;;;;;17.39;52.17;95484.06;5003500;28;20184;-79
2022/12/25 07:28:28;;;;;;;12.85;7.72;;;;;;;17.94;50.88;95486.16;5001612;28;20756;-76
2022/12/25 07:30:53;;;;;;;12.68;7.18;;;;;;;18.71;49.40;95483.63;5000601;28;20181;-76
2022/12/25 07:33:19;;;;;;;14.52;7.15;;;;;;;19.44;47.05;95493.09;4991986;28;20621;-75
2022/12/25 07:35:44;;;;;;;16.50;8.25;;;;;;;20.93;44.51;95490.38;4992260;28;20938;-76
2022/12/25 07:38:10;;;;;;;15.35;8.00;;;;;;;22.65;40.51;95479.25;4991744;28;20224;-77
2022/12/25 07:40:36;;;;;;;8.60;4.80;;;;;;;24.51;35.81;95494.78;4992067;28;20718;-77
2022/12/25 07:43:01;;;;;;;9.07;5.88;;;;;;;25.61;32.43;95503.91;4991966;28;20201;-77
2022/12/25 07:45:26;;;;;;;11.18;6.30;;;;;;;26.54;30.28;95498.53;4993141;28;20244;-77
2022/12/25 07:47:52;;;;;;;13.25;8.07;;;;;;;27.75;27.94;95514.41;4992284;28;20216;-77
2022/12/25 07:50:18;;;;;;;9.82;5.50;;;;;;;28.55;26.00;95510.16;4992242;28;20172;-77
2022/12/25 07:52:45;;;;;;;9.63;5.40;;;;;;;28.86;25.93;95516.47;4991839;28;20183;-76
2022/12/25 07:55:11;;;;;;;8.93;6.30;;;;;;;29.16;24.85;95501.31;4993373;28;20181;-77
2022/12/25 07:57:37;;;;;;;8.93;5.05;;;;;;;29.26;24.83;95505.66;5008205;28;20173;-78
2022/12/25 08:00:04;;;;;;;8.77;5.63;;;;;;;29.67;24.10;95518.91;4996004;28;20216;-78
2022/12/25 08:02:29;;;;;;;12.02;7.10;;;;;;;29.80;23.79;95517.19;5003768;28;20219;-78
2022/12/25 08:04:54;;;;;;;10.85;6.40;;;;;;;29.96;23.85;95524.59;4998152;28;20623;-78
2022/12/25 08:07:20;;;;;;;7.35;4.75;;;;;;;30.30;23.42;95534.72;5004257;28;20212;-79
2022/12/25 08:09:46;;;;;;;8.20;4.88;;;;;;;30.09;23.54;95513.94;5000627;28;20200;-78
2022/12/25 08:12:11;;;;;;;8.52;4.85;;;;;;;29.36;24.40;95527.13;4995444;28;20263;-78
2022/12/25 08:14:37;;;;;;;6.65;4.53;;;;;;;28.95;24.45;95527.38;4997094;28;20239;-77
2022/12/25 08:17:03;;;;;;;7.63;4.60;;;;;;;28.11;25.78;95522.53;5009065;28;20698;-78
2022/12/25 08:19:28;;;;;;;6.90;4.72;;;;;;;27.37;26.40;95518.41;5001494;28;20636;-78
2022/12/25 08:21:54;;;;;;;7.95;5.38;;;;;;;26.56;26.91;95509.00;5000506;28;20183;-77
2022/12/25 08:24:19;;;;;;;11.20;7.03;;;;;;;25.78;28.48;95512.31;4996286;28;20176;-77
2022/12/25 08:26:46;;;;;;;9.63;6.00;;;;;;;24.76;30.02;95504.53;4996075;28;20181;-77
2022/12/25 08:29:11;;;;;;;11.13;5.80;;;;;;;24.13;32.17;95503.69;5001444;28;20177;-77
2022/12/25 08:31:37;;;;;;;7.22;4.80;;;;;;;23.56;31.53;95487.06;5007749;28;20195;-79
2022/12/25 08:34:03;;;;;;;6.40;4.38;;;;;;;22.98;32.97;95501.25;5001543;28;20177;-78
2022/12/25 08:36:29;;;;;;;8.98;4.95;;;;;;;22.45;34.14;95500.75;5007686;28;20230;-78
2022/12/25 08:38:54;;;;;;;7.13;4.43;;;;;;;21.95;35.40;95501.50;4991649;28;20228;-78
2022/12/25 08:41:20;;;;;;;7.57;4.60;;;;;;;21.34;36.08;95498.66;5004080;28;20560;-78
2022/12/25 08:43:45;;;;;;;4.82;2.90;;;;;;;20.92;36.59;95506.72;5007096;28;20263;-78
2022/12/25 08:46:11;;;;;;;8.57;4.60;;;;;;;20.31;38.01;95512.44;4996058;28;20181;-78
2022/12/25 08:48:37;;;;;;;5.28;3.35;;;;;;;19.93;38.47;95516.09;4990184;28;20271;-79
2022/12/25 08:51:03;;;;;;;4.15;2.88;;;;;;;19.58;39.74;95518.41;4996647;28;20328;-78
2022/12/25 08:53:29;;;;;;;8.48;3.85;;;;;;;19.28;40.64;95516.16;5002490;28;20636;-78
2022/12/25 08:56:00;;;;;;;5.30;3.50;;;;;;;19.05;40.96;95514.53;5011757;28;20195;-77
2022/12/25 08:58:27;;;;;;;5.90;3.47;;;;;;;18.81;41.81;95508.59;4998250;28;21226;-76
2022/12/25 09:00:52;;;;;;;8.55;4.28;;;;;;;18.69;43.47;95517.75;5010579;28;20576;-77
2022/12/25 09:03:18;;;;;;;6.90;3.83;;;;;;;18.63;43.10;95516.88;5015180;28;20204;-76
2022/12/25 09:05:43;;;;;;;7.18;3.63;;;;;;;18.67;43.10;95518.03;4993205;28;20170;-78
2022/12/25 09:08:09;;;;;;;7.38;4.43;;;;;;;18.66;42.99;95529.75;4978896;28;20184;-77
2022/12/25 09:10:35;;;;;;;10.05;4.90;;;;;;;18.48;43.11;95525.44;4995257;28;20172;-76
2022/12/25 09:13:01;;;;;;;8.38;3.70;;;;;;;18.17;42.88;95507.31;4993013;28;20280;-77
2022/12/25 09:15:26;;;;;;;6.35;3.00;;;;;;;17.92;43.50;95520.22;4988053;28;20272;-77
2022/12/25 09:17:52;;;;;;;10.57;4.53;;;;;;;17.70;43.89;95518.25;4986838;28;20228;-78
2022/12/25 09:20:17;;;;;;;6.53;3.85;;;;;;;17.51;44.56;95511.47;4997704;28;20267;-76
2022/12/25 09:22:42;;;;;;;7.80;2.78;;;;;;;17.32;44.51;95518.00;4991238;28;20196;-77
2022/12/25 09:25:08;;;;;;;6.90;3.15;;;;;;;16.91;46.20;95522.50;4986267;28;20637;-76
2022/12/25 09:27:34;;;;;;;5.20;3.33;;;;;;;16.45;46.10;95520.63;4983172;28;20224;-77
2022/12/25 09:29:59;;;;;;;4.50;2.53;;;;;;;16.13;47.14;95514.84;4991958;28;20181;-75
2022/12/25 09:32:25;;;;;;;4.87;3.00;;;;;;;16.04;47.97;95507.44;4984346;28;20184;-75
2022/12/25 09:34:50;;;;;;;8.60;4.13;;;;;;;15.92;48.57;95494.13;4982816;28;20601;-76
2022/12/25 09:37:16;;;;;;;3.93;2.10;;;;;;;15.75;48.60;95506.44;4990321;28;20181;-75
2022/12/25 09:39:41;;;;;;;2.20;1.87;;;;;;;15.65;49.21;95514.16;4995072;28;20196;-76
2022/12/25 09:42:15;;;;;;;6.07;2.90;;;;;;;15.57;48.65;95501.19;4981909;28;20193;-76
2022/12/25 09:44:54;;;;;;;5.57;3.10;;;;;;;15.37;49.50;95506.75;4989487;28;20189;-76
2022/12/25 09:47:27;;;;;;;4.73;2.80;;;;;;;15.07;50.88;95470.38;4988317;28;20174;-77
2022/12/25 09:50:10;;;;;;;5.87;3.27;;;;;;;15.40;50.42;95501.78;4986522;28;20185;-76
2022/12/25 09:52:47;;;;;;;9.17;4.00;;;;;;;15.38;51.66;95495.09;4986335;28;20177;-76
2022/12/25 09:55:18;;;;;;;7.57;3.43;;;;;;;15.29;51.05;95491.94;4989405;28;20181;-77
2022/12/25 09:57:45;;;;;;;7.90;3.30;;;;;;;15.19;49.59;95493.50;4989746;28;20702;-77
2022/12/25 10:00:15;;;;;;;4.53;2.53;;;;;;;15.07;50.91;95467.72;4991700;28;20185;-77
2022/12/25 10:02:52;;;;;;;5.03;2.67;;;;;;;15.14;52.10;95488.03;4988245;28;20360;-77
2022/12/25 10:05:48;;;;;;;6.33;3.63;;;;;;;15.19;51.10;95488.19;4993029;28;20262;-77
2022/12/25 10:08:33;;;;;;;6.67;3.63;;;;;;;15.23;51.79;95484.84;4985183;28;20177;-78
2022/12/25 10:11:26;;;;;;;8.27;3.70;;;;;;;15.12;51.63;95490.94;4989385;28;20188;-77
2022/12/25 10:14:10;;;;;;;7.00;3.70;;;;;;;14.92;51.72;95482.41;4985570;28;20188;-76
2022/12/25 10:17:09;;;;;;;5.50;3.67;;;;;;;14.84;51.99;95488.81;4986244;28;20738;-78
2022/12/25 10:19:43;;;;;;;10.40;4.47;;;;;;;14.79;52.90;95487.88;4989300;28;20185;-77
2022/12/25 10:22:34;;;;;;;6.70;3.30;;;;;;;14.69;53.04;95483.09;5000677;28;20181;-77
2022/12/25 10:25:02;;;;;;;5.53;3.13;;;;;;;14.67;52.87;95490.44;4985593;28;20196;-78
2022/12/25 10:27:35;;;;;;;4.57;2.97;;;;;;;14.54;53.78;95480.78;4985911;28;20213;-76
2022/12/25 10:30:12;;;;;;;4.03;2.47;;;;;;;14.41;52.97;95485.41;4981742;28;20181;-77
2022/12/25 10:32:37;;;;;;;4.03;2.57;;;;;;;14.27;53.08;95485.47;4985269;28;20584;-77
2022/12/25 10:35:04;;;;;;;3.17;2.40;;;;;;;14.29;53.39;95479.97;4987060;28;20197;-77
2022/12/25 10:37:29;;;;;;;5.03;2.07;;;;;;;14.12;53.57;95455.88;4981892;28;20224;-77
2022/12/25 10:39:56;;;;;;;5.13;3.03;;;;;;;14.32;53.42;95487.50;4988813;28;20616;-77
2022/12/25 10:42:34;;;;;;;7.53;3.00;;;;;;;14.20;53.64;95483.91;4986528;28;20221;-77
2022/12/25 10:45:05;;;;;;;5.97;3.60;;;;;;;14.15;53.95;95487.25;4986075;28;20188;-77
2022/12/25 10:47:36;;;;;;;7.27;3.83;;;;;;;14.09;54.14;95482.00;4986295;28;20177;-77
2022/12/25 10:50:09;;;;;;;5.27;2.77;;;;;;;13.88;54.43;95491.94;4987737;28;20181;-77
2022/12/25 10:52:45;;;;;;;4.47;2.10;;;;;;;13.68;55.35;95480.66;4983074;28;20177;-77
2022/12/25 10:55:12;;;;;;;3.73;2.30;;;;;;;13.59;56.31;95481.94;4984828;28;20201;-77
2022/12/25 10:57:47;;;;;;;6.37;2.27;;;;;;;13.51;57.75;95475.09;4987971;28;20173;-77
2022/12/25 11:00:27;;;;;;;3.30;2.17;;;;;;;13.57;57.52;95481.38;4984405;28;20558;-78
2022/12/25 11:02:52;;;;;;;3.63;2.00;;;;;;;13.54;57.72;95463.28;4995867;28;20626;-76
2022/12/25 11:05:30;;;;;;;7.20;2.70;;;;;;;13.49;57.83;95471.84;4993050;28;20204;-76
2022/12/25 11:07:58;;;;;;;8.27;2.53;;;;;;;13.52;57.10;95478.53;4983717;28;20188;-77
2022/12/25 11:10:35;;;;;;;6.60;3.00;;;;;;;13.47;57.68;95473.91;4987243;28;20182;-77
2022/12/25 11:13:02;;;;;;;5.60;2.57;;;;;;;13.46;56.40;95474.94;4987312;28;20268;-77
2022/12/25 11:15:41;;;;;;;6.20;2.83;;;;;;;13.40;56.44;95478.44;4988799;28;20560;-77
2022/12/25 11:18:28;;;;;;;4.37;2.47;;;;;;;13.14;56.55;95444.22;4985979;28;20190;-76
2022/12/25 11:20:56;;;;;;;6.30;2.50;;;;;;;13.31;57.28;95474.41;4995669;28;20195;-77
2022/12/25 11:23:25;;;;;;;4.53;2.27;;;;;;;13.19;57.17;95481.38;4987491;28;20685;-78
2022/12/25 11:26:10;;;;;;;4.97;2.40;;;;;;;13.11;58.29;95463.91;4991695;28;20260;-77
2022/12/25 11:28:39;;;;;;;5.50;2.97;;;;;;;13.22;57.69;95470.41;4990355;28;20181;-77
2022/12/25 11:31:07;;;;;;;5.67;2.80;;;;;;;13.16;57.08;95471.22;4983232;28;20192;-77
2022/12/25 11:33:43;;;;;;;7.30;2.90;;;;;;;13.14;58.16;95476.75;4983928;28;20189;-77
2022/12/25 11:36:18;;;;;;;5.17;2.60;;;;;;;13.21;57.53;95485.44;4989456;28;20197;-78
2022/12/25 11:38:44;;;;;;;6.10;2.20;;;;;;;13.16;58.07;95481.78;4991664;28;20304;-77
2022/12/25 11:41:11;;;;;;;3.73;1.60;;;;;;;12.84;58.20;95447.34;4986900;28;20547;-78
2022/12/25 11:43:45;;;;;;;7.93;3.80;;;;;;;13.04;58.41;95492.22;4992957;28;20688;-79
2022/12/25 11:46:14;;;;;;;5.30;1.90;;;;;;;12.96;58.10;95479.22;4989526;28;20566;-79
2022/12/25 11:48:44;;;;;;;4.13;2.30;;;;;;;12.91;58.66;95462.38;4989871;28;21863;-79
2022/12/25 11:51:10;;;;;;;4.07;2.00;;;;;;;13.10;58.49;95482.63;4994302;28;20189;-78
2022/12/25 11:53:52;;;;;;;4.63;2.57;;;;;;;12.97;58.04;95457.06;4991548;28;20547;-79
2022/12/25 11:56:22;;;;;;;3.33;1.67;;;;;;;13.07;58.02;95475.91;4990584;28;20181;-78
2022/12/25 11:59:06;;;;;;;2.97;2.00;;;;;;;13.06;57.76;95492.00;4999606;28;20188;-78
2022/12/25 12:01:37;;;;;;;3.33;1.87;;;;;;;13.09;57.30;95489.75;4998677;28;20750;-78
2022/12/25 12:04:12;;;;;;;3.57;2.27;;;;;;;13.09;58.27;95492.38;4995837;28;20660;-78
2022/12/25 12:06:57;;;;;;;4.43;2.90;;;;;;;13.19;58.75;95500.72;5002510;28;20185;-78
2022/12/25 12:09:46;;;;;;;11.50;4.90;;;;;;;13.21;58.41;95489.94;4991982;28;20245;-78
2022/12/25 12:12:35;;;;;;;4.93;2.40;;;;;;;13.30;57.71;95499.22;4994634;28;20188;-77
2022/12/25 12:15:23;;;;;;;6.37;2.17;;;;;;;13.25;56.63;95487.66;4995898;28;20180;-77
2022/12/25 12:17:49;;;;;;;5.67;2.70;;;;;;;13.09;57.89;95481.00;4993754;28;20189;-78
2022/12/25 12:20:30;;;;;;;5.23;2.50;;;;;;;13.13;58.43;95493.63;4986520;28;20241;-78
2022/12/25 12:22:56;;;;;;;4.80;2.87;;;;;;;13.21;56.99;95492.56;4998365;28;20208;-78
2022/12/25 12:25:22;;;;;;;5.20;2.20;;;;;;;13.20;56.22;95502.34;4997213;28;20604;-79
2022/12/25 12:27:56;;;;;;;3.80;2.30;;;;;;;13.17;56.77;95494.00;4998237;28;20187;-77
2022/12/25 12:30:27;;;;;;;5.03;2.80;;;;;;;13.20;57.27;95504.16;4996402;28;20176;-78
2022/12/25 12:32:58;;;;;;;6.67;3.40;;;;;;;13.19;56.55;95476.91;4996056;28;20303;-77
2022/12/25 12:35:31;;;;;;;7.30;2.97;;;;;;;13.20;55.89;95486.47;4982106;28;20648;-77
2022/12/25 12:38:02;;;;;;;4.70;2.60;;;;;;;13.18;55.87;95492.97;4998334;28;20224;-77
2022/12/25 12:40:42;;;;;;;8.60;3.13;;;;;;;13.15;56.99;95498.69;4985656;28;20188;-78
2022/12/25 12:43:27;;;;;;;6.60;2.77;;;;;;;13.10;57.00;95494.00;4990979;28;20218;-78
2022/12/25 12:46:00;;;;;;;9.07;3.90;;;;;;;13.19;56.50;95500.72;4984354;28;20275;-78
2022/12/25 12:48:27;;;;;;;12.23;5.23;;;;;;;13.23;56.76;95511.69;4988171;28;20200;-78
2022/12/25 12:51:05;;;;;;;9.23;4.10;;;;;;;13.12;55.61;95489.31;4996447;28;20611;-78
2022/12/25 12:53:32;;;;;;;6.57;3.80;;;;;;;13.17;55.51;95508.03;4996201;28;20180;-79
2022/12/25 12:56:12;;;;;;;11.03;5.00;;;;;;;13.16;56.40;95509.03;4988632;28;20268;-78
2022/12/25 12:58:44;;;;;;;8.97;2.77;;;;;;;13.09;55.67;95507.44;4982224;28;20633;-79
2022/12/25 13:01:34;;;;;;;4.50;2.50;;;;;;;13.13;55.32;95512.13;5002781;28;20181;-79
2022/12/25 13:04:28;;;;;;;10.13;3.97;;;;;;;13.04;55.16;95516.00;5000794;28;20208;-80
2022/12/25 13:07:31;;;;;;;9.00;4.33;;;;;;;13.00;55.27;95517.41;4995128;28;20237;-81
2022/12/25 13:10:08;;;;;;;9.17;3.47;;;;;;;12.93;55.20;95503.44;4999803;28;20202;-80
2022/12/25 13:12:34;;;;;;;10.57;3.97;;;;;;;12.99;55.25;95512.34;4999520;28;20180;-80
2022/12/25 13:14:59;;;;;;;8.17;3.10;;;;;;;12.95;55.22;95516.44;4997567;28;20181;-79
2022/12/25 13:17:26;;;;;;;4.77;2.17;;;;;;;12.72;55.04;95491.28;5005961;28;20215;-80
2022/12/25 13:19:57;;;;;;;7.77;2.70;;;;;;;12.69;55.78;95506.75;5003950;28;20200;-80
2022/12/25 13:22:32;;;;;;;7.00;1.97;;;;;;;12.55;56.29;95508.59;4987238;28;20181;-77
2022/12/25 13:25:01;;;;;;;7.40;2.90;;;;;;;12.55;56.76;95508.59;4985699;28;20726;-78
2022/12/25 13:27:29;;;;;;;8.43;3.80;;;;;;;12.61;57.34;95515.72;4999865;28;20185;-78
2022/12/25 13:29:56;;;;;;;5.57;3.03;;;;;;;12.56;57.05;95506.78;4988691;28;20181;-80